sensor_id;sensor_type;location;lat;lon;timestamp;P1;durP1;ratioP1;P2;durP2;ratioP2
12968;SDS011;6549;53.128;8.182;2023-04-03T00:00:32;4.93;;;1.70;;
12968;SDS011;6549;53.128;8.182;2023-04-03T00:03:33;5.30;;;1.75;;
12968;SDS011;6549;53.128;8.182;2023-04-03T00:06:33;7.20;;;1.88;;
12968;SDS011;6549;53.128;8.182;2023-04-03T00:09:35;4.90;;;2.10;;
12968;SDS011;6549;53.128;8.182;2023-04-03T00:12:35;3.92;;;1.60;;
12968;SDS011;6549;53.128;8.182;2023-04-03T00:15:35;7.25;;;1.70;;
12968;SDS011;6549;53.128;8.182;2023-04-03T00:18:37;4.15;;;1.80;;
12968;SDS011;6549;53.128;8.182;2023-04-03T00:21:38;7.78;;;1.75;;
12968;SDS011;6549;53.128;8.182;2023-04-03T00:24:38;3.75;;;1.88;;
12968;SDS011;6549;53.128;8.182;2023-04-03T00:27:39;7.53;;;2.15;;
12968;SDS011;6549;53.128;8.182;2023-04-03T00:30:40;5.13;;;1.70;;
12968;SDS011;6549;53.128;8.182;2023-04-03T00:33:40;5.18;;;1.80;;
12968;SDS011;6549;53.128;8.182;2023-04-03T00:36:41;4.53;;;1.80;;
12968;SDS011;6549;53.128;8.182;2023-04-03T00:39:41;6.60;;;2.10;;
12968;SDS011;6549;53.128;8.182;2023-04-03T00:42:42;6.38;;;1.60;;
12968;SDS011;6549;53.128;8.182;2023-04-03T00:45:44;5.90;;;2.00;;
12968;SDS011;6549;53.128;8.182;2023-04-03T00:48:49;4.53;;;1.75;;
12968;SDS011;6549;53.128;8.182;2023-04-03T00:51:50;5.95;;;2.00;;
12968;SDS011;6549;53.128;8.182;2023-04-03T00:54:51;6.05;;;1.80;;
12968;SDS011;6549;53.128;8.182;2023-04-03T00:57:54;6.57;;;1.92;;
12968;SDS011;6549;53.128;8.182;2023-04-03T01:00:55;4.95;;;1.73;;
12968;SDS011;6549;53.128;8.182;2023-04-03T01:03:59;5.35;;;1.77;;
12968;SDS011;6549;53.128;8.182;2023-04-03T01:07:04;5.15;;;2.20;;
12968;SDS011;6549;53.128;8.182;2023-04-03T01:10:11;7.30;;;2.33;;
12968;SDS011;6549;53.128;8.182;2023-04-03T01:13:22;6.18;;;1.92;;
12968;SDS011;6549;53.128;8.182;2023-04-03T01:16:25;4.68;;;2.08;;
12968;SDS011;6549;53.128;8.182;2023-04-03T01:19:25;4.07;;;1.60;;
12968;SDS011;6549;53.128;8.182;2023-04-03T01:22:26;6.97;;;2.03;;
12968;SDS011;6549;53.128;8.182;2023-04-03T01:25:33;6.53;;;1.92;;
12968;SDS011;6549;53.128;8.182;2023-04-03T01:28:36;5.25;;;1.85;;
12968;SDS011;6549;53.128;8.182;2023-04-03T01:31:49;6.63;;;2.47;;
12968;SDS011;6549;53.128;8.182;2023-04-03T01:34:51;4.22;;;1.73;;
12968;SDS011;6549;53.128;8.182;2023-04-03T01:37:51;8.15;;;2.10;;
12968;SDS011;6549;53.128;8.182;2023-04-03T01:40:52;6.30;;;1.88;;
12968;SDS011;6549;53.128;8.182;2023-04-03T01:43:52;6.30;;;1.90;;
12968;SDS011;6549;53.128;8.182;2023-04-03T01:46:53;6.80;;;1.95;;
12968;SDS011;6549;53.128;8.182;2023-04-03T01:49:53;6.57;;;1.75;;
12968;SDS011;6549;53.128;8.182;2023-04-03T01:52:53;5.53;;;2.22;;
12968;SDS011;6549;53.128;8.182;2023-04-03T01:55:54;7.07;;;1.80;;
12968;SDS011;6549;53.128;8.182;2023-04-03T01:58:54;4.40;;;2.15;;
12968;SDS011;6549;53.128;8.182;2023-04-03T02:01:54;9.88;;;2.33;;
12968;SDS011;6549;53.128;8.182;2023-04-03T02:04:55;10.73;;;2.40;;
12968;SDS011;6549;53.128;8.182;2023-04-03T02:07:55;5.60;;;2.03;;
12968;SDS011;6549;53.128;8.182;2023-04-03T02:10:56;6.95;;;2.60;;
12968;SDS011;6549;53.128;8.182;2023-04-03T02:13:56;5.97;;;2.10;;
12968;SDS011;6549;53.128;8.182;2023-04-03T02:16:57;6.28;;;2.15;;
12968;SDS011;6549;53.128;8.182;2023-04-03T02:19:57;8.40;;;2.63;;
12968;SDS011;6549;53.128;8.182;2023-04-03T02:22:58;10.32;;;2.15;;
12968;SDS011;6549;53.128;8.182;2023-04-03T02:26:06;6.43;;;2.20;;
12968;SDS011;6549;53.128;8.182;2023-04-03T02:29:07;6.75;;;2.13;;
12968;SDS011;6549;53.128;8.182;2023-04-03T02:32:08;6.90;;;2.30;;
12968;SDS011;6549;53.128;8.182;2023-04-03T02:35:09;8.63;;;2.03;;
12968;SDS011;6549;53.128;8.182;2023-04-03T02:38:09;5.03;;;2.05;;
12968;SDS011;6549;53.128;8.182;2023-04-03T02:41:10;8.40;;;2.33;;
12968;SDS011;6549;53.128;8.182;2023-04-03T02:44:11;5.65;;;2.30;;
12968;SDS011;6549;53.128;8.182;2023-04-03T02:47:12;6.85;;;2.17;;
12968;SDS011;6549;53.128;8.182;2023-04-03T02:50:12;7.97;;;2.25;;
12968;SDS011;6549;53.128;8.182;2023-04-03T02:53:13;4.80;;;2.03;;
12968;SDS011;6549;53.128;8.182;2023-04-03T02:56:13;5.72;;;2.20;;
12968;SDS011;6549;53.128;8.182;2023-04-03T02:59:13;6.25;;;2.25;;
12968;SDS011;6549;53.128;8.182;2023-04-03T03:02:14;5.55;;;1.95;;
12968;SDS011;6549;53.128;8.182;2023-04-03T03:05:14;9.50;;;2.38;;
12968;SDS011;6549;53.128;8.182;2023-04-03T03:08:15;9.50;;;2.33;;
12968;SDS011;6549;53.128;8.182;2023-04-03T03:11:16;5.00;;;2.33;;
12968;SDS011;6549;53.128;8.182;2023-04-03T03:14:16;6.63;;;2.40;;
12968;SDS011;6549;53.128;8.182;2023-04-03T03:17:16;5.97;;;2.53;;
12968;SDS011;6549;53.128;8.182;2023-04-03T03:20:17;7.35;;;2.15;;
12968;SDS011;6549;53.128;8.182;2023-04-03T03:23:17;5.10;;;2.00;;
12968;SDS011;6549;53.128;8.182;2023-04-03T03:26:18;6.05;;;2.00;;
12968;SDS011;6549;53.128;8.182;2023-04-03T03:29:18;7.82;;;2.20;;
12968;SDS011;6549;53.128;8.182;2023-04-03T03:32:18;6.43;;;2.28;;
12968;SDS011;6549;53.128;8.182;2023-04-03T03:35:19;7.25;;;2.20;;
12968;SDS011;6549;53.128;8.182;2023-04-03T03:38:19;7.90;;;2.33;;
12968;SDS011;6549;53.128;8.182;2023-04-03T03:41:20;5.85;;;1.95;;
12968;SDS011;6549;53.128;8.182;2023-04-03T03:44:20;8.48;;;2.28;;
12968;SDS011;6549;53.128;8.182;2023-04-03T03:47:21;6.18;;;2.40;;
12968;SDS011;6549;53.128;8.182;2023-04-03T03:50:21;5.43;;;2.10;;
12968;SDS011;6549;53.128;8.182;2023-04-03T03:53:22;6.78;;;2.20;;
12968;SDS011;6549;53.128;8.182;2023-04-03T03:56:22;6.22;;;2.53;;
12968;SDS011;6549;53.128;8.182;2023-04-03T03:59:22;5.35;;;2.20;;
12968;SDS011;6549;53.128;8.182;2023-04-03T04:02:23;9.30;;;2.55;;
12968;SDS011;6549;53.128;8.182;2023-04-03T04:05:23;4.75;;;2.20;;
12968;SDS011;6549;53.128;8.182;2023-04-03T04:08:23;8.07;;;2.67;;
12968;SDS011;6549;53.128;8.182;2023-04-03T04:11:24;8.32;;;2.42;;
12968;SDS011;6549;53.128;8.182;2023-04-03T04:14:24;7.55;;;2.50;;
12968;SDS011;6549;53.128;8.182;2023-04-03T04:17:25;7.65;;;2.50;;
12968;SDS011;6549;53.128;8.182;2023-04-03T04:20:25;5.82;;;2.45;;
12968;SDS011;6549;53.128;8.182;2023-04-03T04:23:25;6.18;;;2.47;;
12968;SDS011;6549;53.128;8.182;2023-04-03T04:26:26;6.47;;;2.60;;
12968;SDS011;6549;53.128;8.182;2023-04-03T04:29:26;4.32;;;2.00;;
12968;SDS011;6549;53.128;8.182;2023-04-03T04:32:26;7.45;;;2.42;;
12968;SDS011;6549;53.128;8.182;2023-04-03T04:35:27;3.63;;;2.28;;
12968;SDS011;6549;53.128;8.182;2023-04-03T04:38:27;5.75;;;2.42;;
12968;SDS011;6549;53.128;8.182;2023-04-03T04:41:27;5.28;;;2.45;;
12968;SDS011;6549;53.128;8.182;2023-04-03T04:44:27;5.47;;;2.65;;
12968;SDS011;6549;53.128;8.182;2023-04-03T04:47:28;5.32;;;2.72;;
12968;SDS011;6549;53.128;8.182;2023-04-03T04:50:29;6.70;;;2.40;;
12968;SDS011;6549;53.128;8.182;2023-04-03T04:53:30;3.88;;;2.30;;
12968;SDS011;6549;53.128;8.182;2023-04-03T04:56:30;5.95;;;2.63;;
12968;SDS011;6549;53.128;8.182;2023-04-03T04:59:31;4.45;;;2.30;;
12968;SDS011;6549;53.128;8.182;2023-04-03T05:02:31;4.57;;;2.60;;
12968;SDS011;6549;53.128;8.182;2023-04-03T05:05:32;9.38;;;2.85;;
12968;SDS011;6549;53.128;8.182;2023-04-03T05:08:32;9.15;;;2.78;;
12968;SDS011;6549;53.128;8.182;2023-04-03T05:11:32;11.38;;;3.10;;
12968;SDS011;6549;53.128;8.182;2023-04-03T05:14:32;7.15;;;3.05;;
12968;SDS011;6549;53.128;8.182;2023-04-03T05:17:33;6.43;;;2.90;;
12968;SDS011;6549;53.128;8.182;2023-04-03T05:20:33;6.25;;;2.75;;
12968;SDS011;6549;53.128;8.182;2023-04-03T05:23:33;6.35;;;3.17;;
12968;SDS011;6549;53.128;8.182;2023-04-03T05:26:34;9.23;;;3.53;;
12968;SDS011;6549;53.128;8.182;2023-04-03T05:29:34;9.45;;;3.28;;
12968;SDS011;6549;53.128;8.182;2023-04-03T05:32:35;8.48;;;3.38;;
12968;SDS011;6549;53.128;8.182;2023-04-03T05:35:35;5.47;;;3.05;;
12968;SDS011;6549;53.128;8.182;2023-04-03T05:38:40;10.20;;;3.75;;
12968;SDS011;6549;53.128;8.182;2023-04-03T05:41:41;8.32;;;3.15;;
12968;SDS011;6549;53.128;8.182;2023-04-03T05:44:41;7.97;;;3.42;;
12968;SDS011;6549;53.128;8.182;2023-04-03T05:47:41;11.68;;;3.40;;
12968;SDS011;6549;53.128;8.182;2023-04-03T05:50:42;10.48;;;3.30;;
12968;SDS011;6549;53.128;8.182;2023-04-03T05:53:42;10.38;;;2.88;;
12968;SDS011;6549;53.128;8.182;2023-04-03T05:56:44;8.13;;;3.20;;
12968;SDS011;6549;53.128;8.182;2023-04-03T05:59:45;8.40;;;2.88;;
12968;SDS011;6549;53.128;8.182;2023-04-03T06:02:46;8.90;;;3.53;;
12968;SDS011;6549;53.128;8.182;2023-04-03T06:05:46;8.52;;;3.28;;
12968;SDS011;6549;53.128;8.182;2023-04-03T06:08:47;6.40;;;2.55;;
12968;SDS011;6549;53.128;8.182;2023-04-03T06:11:47;9.68;;;2.83;;
12968;SDS011;6549;53.128;8.182;2023-04-03T06:14:48;9.75;;;2.83;;
12968;SDS011;6549;53.128;8.182;2023-04-03T06:17:48;9.70;;;3.00;;
12968;SDS011;6549;53.128;8.182;2023-04-03T06:20:49;6.18;;;2.75;;
12968;SDS011;6549;53.128;8.182;2023-04-03T06:23:49;8.77;;;2.70;;
12968;SDS011;6549;53.128;8.182;2023-04-03T06:26:51;8.63;;;2.70;;
12968;SDS011;6549;53.128;8.182;2023-04-03T06:29:52;6.07;;;2.55;;
12968;SDS011;6549;53.128;8.182;2023-04-03T06:32:53;7.30;;;2.85;;
12968;SDS011;6549;53.128;8.182;2023-04-03T06:35:57;6.40;;;2.63;;
12968;SDS011;6549;53.128;8.182;2023-04-03T06:38:58;8.48;;;2.90;;
12968;SDS011;6549;53.128;8.182;2023-04-03T06:41:59;11.40;;;3.10;;
12968;SDS011;6549;53.128;8.182;2023-04-03T06:45:00;7.88;;;2.85;;
12968;SDS011;6549;53.128;8.182;2023-04-03T06:48:00;8.95;;;3.10;;
12968;SDS011;6549;53.128;8.182;2023-04-03T06:51:01;8.32;;;3.03;;
12968;SDS011;6549;53.128;8.182;2023-04-03T06:54:02;7.47;;;3.00;;
12968;SDS011;6549;53.128;8.182;2023-04-03T06:57:04;8.52;;;3.13;;
12968;SDS011;6549;53.128;8.182;2023-04-03T07:00:05;14.10;;;4.40;;
12968;SDS011;6549;53.128;8.182;2023-04-03T07:03:06;9.25;;;3.45;;
12968;SDS011;6549;53.128;8.182;2023-04-03T07:06:09;8.82;;;3.88;;
12968;SDS011;6549;53.128;8.182;2023-04-03T07:09:11;10.25;;;3.50;;
12968;SDS011;6549;53.128;8.182;2023-04-03T07:12:12;7.45;;;3.40;;
12968;SDS011;6549;53.128;8.182;2023-04-03T07:15:12;7.85;;;3.10;;
12968;SDS011;6549;53.128;8.182;2023-04-03T07:18:13;8.48;;;3.33;;
12968;SDS011;6549;53.128;8.182;2023-04-03T07:21:13;10.13;;;3.33;;
12968;SDS011;6549;53.128;8.182;2023-04-03T07:24:14;7.72;;;3.40;;
12968;SDS011;6549;53.128;8.182;2023-04-03T07:27:14;7.55;;;3.25;;
12968;SDS011;6549;53.128;8.182;2023-04-03T07:30:15;7.13;;;2.78;;
12968;SDS011;6549;53.128;8.182;2023-04-03T07:33:15;9.88;;;3.22;;
12968;SDS011;6549;53.128;8.182;2023-04-03T07:36:18;6.88;;;3.03;;
12968;SDS011;6549;53.128;8.182;2023-04-03T07:39:20;9.13;;;3.30;;
12968;SDS011;6549;53.128;8.182;2023-04-03T07:42:20;9.68;;;3.10;;
12968;SDS011;6549;53.128;8.182;2023-04-03T07:45:21;7.82;;;3.17;;
12968;SDS011;6549;53.128;8.182;2023-04-03T07:48:24;8.18;;;2.88;;
12968;SDS011;6549;53.128;8.182;2023-04-03T07:54:26;7.82;;;3.47;;
12968;SDS011;6549;53.128;8.182;2023-04-03T07:57:27;11.93;;;3.22;;
12968;SDS011;6549;53.128;8.182;2023-04-03T08:00:27;7.35;;;3.25;;
12968;SDS011;6549;53.128;8.182;2023-04-03T08:03:28;6.32;;;2.67;;
12968;SDS011;6549;53.128;8.182;2023-04-03T08:06:28;6.32;;;2.90;;
12968;SDS011;6549;53.128;8.182;2023-04-03T08:09:34;7.78;;;3.63;;
12968;SDS011;6549;53.128;8.182;2023-04-03T08:12:35;9.98;;;3.60;;
12968;SDS011;6549;53.128;8.182;2023-04-03T08:15:36;6.40;;;2.72;;
12968;SDS011;6549;53.128;8.182;2023-04-03T08:18:37;5.60;;;2.60;;
12968;SDS011;6549;53.128;8.182;2023-04-03T08:21:37;7.32;;;2.90;;
12968;SDS011;6549;53.128;8.182;2023-04-03T08:24:37;8.45;;;3.00;;
12968;SDS011;6549;53.128;8.182;2023-04-03T08:27:38;6.55;;;2.72;;
12968;SDS011;6549;53.128;8.182;2023-04-03T08:30:39;5.07;;;2.22;;
12968;SDS011;6549;53.128;8.182;2023-04-03T08:33:40;5.13;;;2.13;;
12968;SDS011;6549;53.128;8.182;2023-04-03T08:36:41;7.13;;;2.33;;
12968;SDS011;6549;53.128;8.182;2023-04-03T08:39:42;6.38;;;2.28;;
12968;SDS011;6549;53.128;8.182;2023-04-03T08:42:46;6.00;;;2.58;;
12968;SDS011;6549;53.128;8.182;2023-04-03T08:45:57;7.13;;;2.80;;
12968;SDS011;6549;53.128;8.182;2023-04-03T08:49:03;7.57;;;3.15;;
12968;SDS011;6549;53.128;8.182;2023-04-03T08:52:11;3.47;;;2.10;;
12968;SDS011;6549;53.128;8.182;2023-04-03T08:55:27;5.13;;;1.60;;
12968;SDS011;6549;53.128;8.182;2023-04-03T08:58:30;6.55;;;1.90;;
12968;SDS011;6549;53.128;8.182;2023-04-03T09:01:38;6.80;;;2.10;;
12968;SDS011;6549;53.128;8.182;2023-04-03T09:04:40;5.22;;;1.90;;
12968;SDS011;6549;53.128;8.182;2023-04-03T09:07:47;4.93;;;1.60;;
12968;SDS011;6549;53.128;8.182;2023-04-03T09:10:58;5.40;;;1.60;;
12968;SDS011;6549;53.128;8.182;2023-04-03T09:14:09;5.07;;;1.70;;
12968;SDS011;6549;53.128;8.182;2023-04-03T09:20:45;3.97;;;1.50;;
12968;SDS011;6549;53.128;8.182;2023-04-03T09:23:52;3.63;;;1.30;;
12968;SDS011;6549;53.128;8.182;2023-04-03T09:26:59;2.13;;;1.00;;
12968;SDS011;6549;53.128;8.182;2023-04-03T09:30:04;3.38;;;1.30;;
12968;SDS011;6549;53.128;8.182;2023-04-03T09:36:07;2.60;;;1.20;;
12968;SDS011;6549;53.128;8.182;2023-04-03T09:39:12;4.05;;;1.50;;
12968;SDS011;6549;53.128;8.182;2023-04-03T09:45:24;4.40;;;1.55;;
12968;SDS011;6549;53.128;8.182;2023-04-03T09:48:27;4.28;;;1.50;;
12968;SDS011;6549;53.128;8.182;2023-04-03T09:51:28;3.05;;;1.58;;
12968;SDS011;6549;53.128;8.182;2023-04-03T09:54:35;3.83;;;1.45;;
12968;SDS011;6549;53.128;8.182;2023-04-03T09:57:38;2.75;;;1.30;;
12968;SDS011;6549;53.128;8.182;2023-04-03T10:00:40;3.70;;;1.48;;
12968;SDS011;6549;53.128;8.182;2023-04-03T10:03:40;3.88;;;1.30;;
12968;SDS011;6549;53.128;8.182;2023-04-03T10:09:54;3.30;;;1.30;;
12968;SDS011;6549;53.128;8.182;2023-04-03T10:13:10;2.88;;;1.73;;
12968;SDS011;6549;53.128;8.182;2023-04-03T10:16:22;3.33;;;1.70;;
12968;SDS011;6549;53.128;8.182;2023-04-03T10:19:32;3.38;;;1.30;;
12968;SDS011;6549;53.128;8.182;2023-04-03T10:22:39;2.95;;;1.40;;
12968;SDS011;6549;53.128;8.182;2023-04-03T10:25:55;4.78;;;1.48;;
12968;SDS011;6549;53.128;8.182;2023-04-03T10:29:15;3.65;;;1.70;;
12968;SDS011;6549;53.128;8.182;2023-04-03T10:32:52;4.50;;;1.60;;
12968;SDS011;6549;53.128;8.182;2023-04-03T10:45:56;4.32;;;1.60;;
12968;SDS011;6549;53.128;8.182;2023-04-03T10:49:03;4.75;;;1.55;;
12968;SDS011;6549;53.128;8.182;2023-04-03T10:52:27;3.55;;;1.60;;
12968;SDS011;6549;53.128;8.182;2023-04-03T10:55:45;2.65;;;1.60;;
12968;SDS011;6549;53.128;8.182;2023-04-03T11:05:31;3.63;;;1.40;;
12968;SDS011;6549;53.128;8.182;2023-04-03T11:08:38;1.95;;;1.15;;
12968;SDS011;6549;53.128;8.182;2023-04-03T11:11:44;2.50;;;1.10;;
12968;SDS011;6549;53.128;8.182;2023-04-03T11:14:47;2.45;;;1.30;;
12968;SDS011;6549;53.128;8.182;2023-04-03T11:17:53;3.53;;;1.38;;
12968;SDS011;6549;53.128;8.182;2023-04-03T11:21:01;2.90;;;1.35;;
12968;SDS011;6549;53.128;8.182;2023-04-03T11:24:12;2.95;;;1.30;;
12968;SDS011;6549;53.128;8.182;2023-04-03T11:30:31;2.75;;;1.15;;
12968;SDS011;6549;53.128;8.182;2023-04-03T11:37:11;3.75;;;1.40;;
12968;SDS011;6549;53.128;8.182;2023-04-03T11:43:21;4.05;;;1.45;;
12968;SDS011;6549;53.128;8.182;2023-04-03T11:46:49;2.35;;;1.17;;
12968;SDS011;6549;53.128;8.182;2023-04-03T11:49:55;4.20;;;1.30;;
12968;SDS011;6549;53.128;8.182;2023-04-03T11:53:00;3.60;;;1.20;;
12968;SDS011;6549;53.128;8.182;2023-04-03T11:56:47;2.67;;;1.20;;
12968;SDS011;6549;53.128;8.182;2023-04-03T11:59:23;2.45;;;1.25;;
12968;SDS011;6549;53.128;8.182;2023-04-03T12:02:36;3.80;;;1.40;;
12968;SDS011;6549;53.128;8.182;2023-04-03T12:05:37;2.90;;;1.13;;
12968;SDS011;6549;53.128;8.182;2023-04-03T12:11:41;2.45;;;1.00;;
12968;SDS011;6549;53.128;8.182;2023-04-03T12:14:41;3.50;;;1.30;;
12968;SDS011;6549;53.128;8.182;2023-04-03T12:17:41;3.40;;;1.20;;
12968;SDS011;6549;53.128;8.182;2023-04-03T12:27:21;2.38;;;1.17;;
12968;SDS011;6549;53.128;8.182;2023-04-03T12:30:25;1.63;;;1.08;;
12968;SDS011;6549;53.128;8.182;2023-04-03T12:33:34;3.97;;;1.23;;
12968;SDS011;6549;53.128;8.182;2023-04-03T12:36:46;3.83;;;1.30;;
12968;SDS011;6549;53.128;8.182;2023-04-03T12:50:00;2.58;;;1.40;;
12968;SDS011;6549;53.128;8.182;2023-04-03T12:56:18;3.22;;;1.20;;
12968;SDS011;6549;53.128;8.182;2023-04-03T12:59:22;1.30;;;1.02;;
12968;SDS011;6549;53.128;8.182;2023-04-03T13:05:28;4.13;;;1.42;;
12968;SDS011;6549;53.128;8.182;2023-04-03T13:08:30;1.80;;;1.33;;
12968;SDS011;6549;53.128;8.182;2023-04-03T13:11:36;3.55;;;1.30;;
12968;SDS011;6549;53.128;8.182;2023-04-03T13:14:40;3.05;;;1.20;;
12968;SDS011;6549;53.128;8.182;2023-04-03T13:17:41;1.45;;;1.00;;
12968;SDS011;6549;53.128;8.182;2023-04-03T13:20:42;4.17;;;1.40;;
12968;SDS011;6549;53.128;8.182;2023-04-03T13:23:44;3.10;;;1.33;;
12968;SDS011;6549;53.128;8.182;2023-04-03T13:26:48;2.63;;;1.15;;
12968;SDS011;6549;53.128;8.182;2023-04-03T13:29:52;2.60;;;1.25;;
12968;SDS011;6549;53.128;8.182;2023-04-03T13:32:57;3.70;;;1.20;;
12968;SDS011;6549;53.128;8.182;2023-04-03T13:36:01;3.33;;;1.33;;
12968;SDS011;6549;53.128;8.182;2023-04-03T13:39:17;2.85;;;1.10;;
12968;SDS011;6549;53.128;8.182;2023-04-03T13:42:23;3.45;;;1.58;;
12968;SDS011;6549;53.128;8.182;2023-04-03T13:45:30;2.58;;;1.20;;
12968;SDS011;6549;53.128;8.182;2023-04-03T13:51:40;3.08;;;1.30;;
12968;SDS011;6549;53.128;8.182;2023-04-03T13:54:40;1.98;;;1.20;;
12968;SDS011;6549;53.128;8.182;2023-04-03T14:01:10;1.85;;;1.20;;
12968;SDS011;6549;53.128;8.182;2023-04-03T14:04:17;4.15;;;1.55;;
12968;SDS011;6549;53.128;8.182;2023-04-03T14:07:21;1.73;;;1.13;;
12968;SDS011;6549;53.128;8.182;2023-04-03T14:10:22;2.58;;;1.30;;
12968;SDS011;6549;53.128;8.182;2023-04-03T14:13:22;2.95;;;1.30;;
12968;SDS011;6549;53.128;8.182;2023-04-03T14:16:24;4.57;;;1.38;;
12968;SDS011;6549;53.128;8.182;2023-04-03T14:19:34;3.75;;;1.15;;
12968;SDS011;6549;53.128;8.182;2023-04-03T14:22:35;2.38;;;1.20;;
12968;SDS011;6549;53.128;8.182;2023-04-03T14:25:36;3.33;;;1.40;;
12968;SDS011;6549;53.128;8.182;2023-04-03T14:28:37;3.88;;;1.38;;
12968;SDS011;6549;53.128;8.182;2023-04-03T14:31:42;3.03;;;1.58;;
12968;SDS011;6549;53.128;8.182;2023-04-03T14:34:44;2.47;;;1.23;;
12968;SDS011;6549;53.128;8.182;2023-04-03T14:37:46;3.17;;;1.35;;
12968;SDS011;6549;53.128;8.182;2023-04-03T14:40:47;2.08;;;1.38;;
12968;SDS011;6549;53.128;8.182;2023-04-03T14:43:48;4.72;;;1.48;;
12968;SDS011;6549;53.128;8.182;2023-04-03T14:46:49;3.08;;;1.45;;
12968;SDS011;6549;53.128;8.182;2023-04-03T14:49:49;3.58;;;1.70;;
12968;SDS011;6549;53.128;8.182;2023-04-03T14:52:52;2.92;;;1.60;;
12968;SDS011;6549;53.128;8.182;2023-04-03T14:55:54;5.45;;;1.90;;
12968;SDS011;6549;53.128;8.182;2023-04-03T14:58:55;3.10;;;1.60;;
12968;SDS011;6549;53.128;8.182;2023-04-03T15:01:58;3.85;;;1.80;;
12968;SDS011;6549;53.128;8.182;2023-04-03T15:04:58;4.00;;;1.70;;
12968;SDS011;6549;53.128;8.182;2023-04-03T15:08:00;5.07;;;1.80;;
12968;SDS011;6549;53.128;8.182;2023-04-03T15:11:00;6.65;;;1.90;;
12968;SDS011;6549;53.128;8.182;2023-04-03T15:14:01;4.22;;;1.77;;
12968;SDS011;6549;53.128;8.182;2023-04-03T15:17:01;3.65;;;1.50;;
12968;SDS011;6549;53.128;8.182;2023-04-03T15:20:03;3.42;;;1.60;;
12968;SDS011;6549;53.128;8.182;2023-04-03T15:23:12;4.88;;;1.67;;
12968;SDS011;6549;53.128;8.182;2023-04-03T15:26:13;4.60;;;1.60;;
12968;SDS011;6549;53.128;8.182;2023-04-03T15:29:13;3.03;;;1.35;;
12968;SDS011;6549;53.128;8.182;2023-04-03T15:32:13;3.58;;;1.50;;
12968;SDS011;6549;53.128;8.182;2023-04-03T15:35:14;3.00;;;1.30;;
12968;SDS011;6549;53.128;8.182;2023-04-03T15:38:14;3.83;;;1.50;;
12968;SDS011;6549;53.128;8.182;2023-04-03T15:41:15;4.55;;;1.60;;
12968;SDS011;6549;53.128;8.182;2023-04-03T15:44:15;3.38;;;1.45;;
12968;SDS011;6549;53.128;8.182;2023-04-03T15:47:17;2.65;;;1.40;;
12968;SDS011;6549;53.128;8.182;2023-04-03T15:50:18;4.50;;;2.00;;
12968;SDS011;6549;53.128;8.182;2023-04-03T15:53:18;2.38;;;1.25;;
12968;SDS011;6549;53.128;8.182;2023-04-03T15:56:18;3.58;;;1.58;;
12968;SDS011;6549;53.128;8.182;2023-04-03T15:59:19;3.28;;;1.75;;
12968;SDS011;6549;53.128;8.182;2023-04-03T16:02:19;4.97;;;1.75;;
12968;SDS011;6549;53.128;8.182;2023-04-03T16:05:21;4.30;;;1.60;;
12968;SDS011;6549;53.128;8.182;2023-04-03T16:08:22;7.22;;;1.63;;
12968;SDS011;6549;53.128;8.182;2023-04-03T16:11:22;2.85;;;1.50;;
12968;SDS011;6549;53.128;8.182;2023-04-03T16:14:22;4.95;;;2.00;;
12968;SDS011;6549;53.128;8.182;2023-04-03T16:17:22;2.70;;;1.60;;
12968;SDS011;6549;53.128;8.182;2023-04-03T16:20:23;4.70;;;1.70;;
12968;SDS011;6549;53.128;8.182;2023-04-03T16:23:24;4.80;;;2.00;;
12968;SDS011;6549;53.128;8.182;2023-04-03T16:26:26;3.40;;;1.80;;
12968;SDS011;6549;53.128;8.182;2023-04-03T16:29:26;4.22;;;1.90;;
12968;SDS011;6549;53.128;8.182;2023-04-03T16:32:27;3.72;;;1.80;;
12968;SDS011;6549;53.128;8.182;2023-04-03T16:35:30;4.07;;;1.80;;
12968;SDS011;6549;53.128;8.182;2023-04-03T16:38:30;3.67;;;1.85;;
12968;SDS011;6549;53.128;8.182;2023-04-03T16:41:31;4.90;;;1.98;;
12968;SDS011;6549;53.128;8.182;2023-04-03T16:44:32;4.38;;;2.25;;
12968;SDS011;6549;53.128;8.182;2023-04-03T16:47:32;8.02;;;2.40;;
12968;SDS011;6549;53.128;8.182;2023-04-03T16:50:32;4.60;;;2.13;;
12968;SDS011;6549;53.128;8.182;2023-04-03T16:53:33;5.03;;;2.28;;
12968;SDS011;6549;53.128;8.182;2023-04-03T16:56:33;4.75;;;2.40;;
12968;SDS011;6549;53.128;8.182;2023-04-03T16:59:34;4.35;;;2.25;;
12968;SDS011;6549;53.128;8.182;2023-04-03T17:02:34;7.03;;;2.30;;
12968;SDS011;6549;53.128;8.182;2023-04-03T17:05:35;6.35;;;2.28;;
12968;SDS011;6549;53.128;8.182;2023-04-03T17:08:35;6.28;;;2.60;;
12968;SDS011;6549;53.128;8.182;2023-04-03T17:11:36;3.25;;;2.20;;
12968;SDS011;6549;53.128;8.182;2023-04-03T17:14:36;5.43;;;2.72;;
12968;SDS011;6549;53.128;8.182;2023-04-03T17:17:36;6.30;;;2.50;;
12968;SDS011;6549;53.128;8.182;2023-04-03T17:20:37;4.90;;;2.58;;
12968;SDS011;6549;53.128;8.182;2023-04-03T17:23:38;4.50;;;2.15;;
12968;SDS011;6549;53.128;8.182;2023-04-03T17:26:40;4.35;;;2.65;;
12968;SDS011;6549;53.128;8.182;2023-04-03T17:29:41;6.90;;;2.80;;
12968;SDS011;6549;53.128;8.182;2023-04-03T17:32:42;5.70;;;2.97;;
12968;SDS011;6549;53.128;8.182;2023-04-03T17:35:42;6.03;;;2.53;;
12968;SDS011;6549;53.128;8.182;2023-04-03T17:38:42;6.80;;;2.55;;
12968;SDS011;6549;53.128;8.182;2023-04-03T17:41:43;8.07;;;2.40;;
12968;SDS011;6549;53.128;8.182;2023-04-03T17:44:44;6.03;;;2.60;;
12968;SDS011;6549;53.128;8.182;2023-04-03T17:47:45;4.57;;;2.47;;
12968;SDS011;6549;53.128;8.182;2023-04-03T17:50:45;5.93;;;2.90;;
12968;SDS011;6549;53.128;8.182;2023-04-03T17:53:46;8.77;;;3.13;;
12968;SDS011;6549;53.128;8.182;2023-04-03T17:56:46;4.72;;;2.70;;
12968;SDS011;6549;53.128;8.182;2023-04-03T17:59:47;5.78;;;2.90;;
12968;SDS011;6549;53.128;8.182;2023-04-03T18:02:50;5.05;;;2.80;;
12968;SDS011;6549;53.128;8.182;2023-04-03T18:05:51;6.45;;;2.55;;
12968;SDS011;6549;53.128;8.182;2023-04-03T18:08:53;6.95;;;2.70;;
12968;SDS011;6549;53.128;8.182;2023-04-03T18:11:55;6.50;;;2.92;;
12968;SDS011;6549;53.128;8.182;2023-04-03T18:14:57;6.60;;;3.25;;
12968;SDS011;6549;53.128;8.182;2023-04-03T18:17:59;6.40;;;2.80;;
12968;SDS011;6549;53.128;8.182;2023-04-03T18:20:59;5.90;;;2.78;;
12968;SDS011;6549;53.128;8.182;2023-04-03T18:24:00;6.28;;;3.08;;
12968;SDS011;6549;53.128;8.182;2023-04-03T18:27:04;7.45;;;3.17;;
12968;SDS011;6549;53.128;8.182;2023-04-03T18:30:09;6.85;;;3.20;;
12968;SDS011;6549;53.128;8.182;2023-04-03T18:33:12;9.63;;;3.53;;
12968;SDS011;6549;53.128;8.182;2023-04-03T18:36:12;4.95;;;2.90;;
12968;SDS011;6549;53.128;8.182;2023-04-03T18:39:13;5.68;;;2.90;;
12968;SDS011;6549;53.128;8.182;2023-04-03T18:42:14;6.53;;;2.67;;
12968;SDS011;6549;53.128;8.182;2023-04-03T18:45:18;6.88;;;3.03;;
12968;SDS011;6549;53.128;8.182;2023-04-03T18:48:22;7.10;;;2.90;;
12968;SDS011;6549;53.128;8.182;2023-04-03T18:51:23;6.30;;;2.63;;
12968;SDS011;6549;53.128;8.182;2023-04-03T18:54:25;5.35;;;2.75;;
12968;SDS011;6549;53.128;8.182;2023-04-03T18:57:25;7.72;;;2.88;;
12968;SDS011;6549;53.128;8.182;2023-04-03T19:00:25;6.28;;;3.00;;
12968;SDS011;6549;53.128;8.182;2023-04-03T19:03:26;7.50;;;3.28;;
12968;SDS011;6549;53.128;8.182;2023-04-03T19:06:28;6.30;;;2.72;;
12968;SDS011;6549;53.128;8.182;2023-04-03T19:09:29;5.60;;;2.50;;
12968;SDS011;6549;53.128;8.182;2023-04-03T19:12:29;6.78;;;3.15;;
12968;SDS011;6549;53.128;8.182;2023-04-03T19:15:29;5.60;;;3.00;;
12968;SDS011;6549;53.128;8.182;2023-04-03T19:18:31;6.20;;;2.90;;
12968;SDS011;6549;53.128;8.182;2023-04-03T19:21:31;7.13;;;2.92;;
12968;SDS011;6549;53.128;8.182;2023-04-03T19:24:33;7.22;;;3.15;;
12968;SDS011;6549;53.128;8.182;2023-04-03T19:27:35;5.88;;;2.80;;
12968;SDS011;6549;53.128;8.182;2023-04-03T19:30:36;6.95;;;2.92;;
12968;SDS011;6549;53.128;8.182;2023-04-03T19:33:37;6.90;;;3.08;;
12968;SDS011;6549;53.128;8.182;2023-04-03T19:36:39;6.03;;;3.15;;
12968;SDS011;6549;53.128;8.182;2023-04-03T19:39:41;7.50;;;3.53;;
12968;SDS011;6549;53.128;8.182;2023-04-03T19:42:41;5.95;;;2.60;;
12968;SDS011;6549;53.128;8.182;2023-04-03T19:45:41;8.55;;;3.22;;
12968;SDS011;6549;53.128;8.182;2023-04-03T19:48:43;6.72;;;3.22;;